Time;durP1;ratioP1;P1;durP2;ratioP2;P2;SDS_P1;SDS_P2;PMS_P1;PMS_P2;Temp;Humidity;BMP_temperature;BMP_pressure;BME280_temperature;BME280_humidity;BME280_pressure;Samples;Min_cycle;Max_cycle;Signal;HPM_P1;HPM_P2
2021/09/13 00:00:20;;;;;;;9.33;7.70;;;;;;;;;;4972687;28;20178;-85
2021/09/13 00:03:24;;;;;;;9.20;7.73;;;;;;;;;;4984229;28;20182;-85
2021/09/13 00:06:29;;;;;;;8.83;7.93;;;;;;;;;;4984063;28;20221;-85
2021/09/13 00:09:33;;;;;;;7.90;7.10;;;;;;;;;;4995343;28;20182;-85
2021/09/13 00:12:37;;;;;;;10.20;7.50;;;;;;;;;;4973009;28;20174;-85
2021/09/13 00:15:43;;;;;;;7.93;6.40;;;;;;;;;;4984080;28;20214;-85
2021/09/13 00:18:48;;;;;;;8.83;7.90;;;;;;;;;;4973265;28;20178;-84
2021/09/13 00:21:53;;;;;;;9.63;8.37;;;;;;;;;;4995158;28;20175;-85
2021/09/13 00:24:57;;;;;;;12.27;8.30;;;;;;;;;;4983804;28;20178;-85
2021/09/13 00:28:02;;;;;;;10.20;8.07;;;;;;;;;;4984080;28;20522;-85
2021/09/13 00:31:07;;;;;;;8.93;8.03;;;;;;;;;;4972718;28;20214;-85
2021/09/13 00:34:11;;;;;;;11.10;8.10;;;;;;;;;;4976902;28;20178;-85
2021/09/13 00:37:18;;;;;;;10.70;8.50;;;;;;;;;;4987958;28;20218;-85
2021/09/13 00:40:24;;;;;;;10.53;9.03;;;;;;;;;;4988358;28;20174;-85
2021/09/13 00:43:30;;;;;;;9.93;8.93;;;;;;;;;;4999039;28;20178;-85
2021/09/13 00:46:35;;;;;;;9.60;8.63;;;;;;;;;;5019151;23;20703;-83
2021/09/13 00:49:39;;;;;;;10.90;9.37;;;;;;;;;;4985596;28;20193;-84
2021/09/13 00:52:49;;;;;;;12.87;10.47;;;;;;;;;;5009288;28;20181;-85
2021/09/13 00:55:54;;;;;;;9.67;8.67;;;;;;;;;;4995518;28;20237;-85
2021/09/13 00:58:58;;;;;;;11.77;9.07;;;;;;;;;;4987325;28;20182;-83
2021/09/13 01:02:03;;;;;;;14.07;9.70;;;;;;;;;;5007244;28;20178;-83
2021/09/13 01:05:09;;;;;;;13.53;10.33;;;;;;;;;;5010014;28;20193;-83
2021/09/13 01:08:14;;;;;;;11.20;10.10;;;;;;;;;;5008074;28;20222;-85
2021/09/13 01:11:18;;;;;;;11.20;10.10;;;;;;;;;;4995322;28;20228;-83
2021/09/13 01:14:22;;;;;;;12.13;9.87;;;;;;;;;;4985622;28;20208;-85
2021/09/13 01:17:26;;;;;;;13.43;11.07;;;;;;;;;;4984241;28;20676;-83
2021/09/13 01:20:31;;;;;;;11.43;10.20;;;;;;;;;;5005877;28;20548;-85
2021/09/13 01:23:36;;;;;;;11.53;10.03;;;;;;;;;;4985203;28;20208;-86
2021/09/13 01:26:49;;;;;;;11.50;9.87;;;;;;;;;;4995628;28;20240;-85
2021/09/13 01:29:58;;;;;;;11.30;10.10;;;;;;;;;;4987105;28;20197;-83
2021/09/13 01:33:03;;;;;;;9.07;8.17;;;;;;;;;;4987085;28;20185;-83
2021/09/13 01:36:08;;;;;;;12.77;9.70;;;;;;;;;;4986629;28;20216;-83
2021/09/13 01:39:12;;;;;;;10.37;9.27;;;;;;;;;;4995602;28;20197;-85
2021/09/13 01:42:16;;;;;;;10.70;9.10;;;;;;;;;;4984180;28;20201;-85
2021/09/13 01:45:20;;;;;;;13.37;9.13;;;;;;;;;;4983675;28;20186;-85
2021/09/13 01:48:24;;;;;;;10.77;9.47;;;;;;;;;;4996061;28;20628;-85
2021/09/13 01:51:31;;;;;;;12.03;9.63;;;;;;;;;;4994746;28;20225;-86
2021/09/13 01:54:36;;;;;;;10.90;9.80;;;;;;;;;;4995433;28;20201;-83
2021/09/13 01:57:44;;;;;;;11.33;9.57;;;;;;;;;;4993847;28;20221;-86
2021/09/13 02:00:50;;;;;;;10.13;8.73;;;;;;;;;;4983331;28;20198;-85
2021/09/13 02:03:54;;;;;;;11.23;10.03;;;;;;;;;;4993984;28;20186;-85
2021/09/13 02:06:58;;;;;;;13.17;11.03;;;;;;;;;;4983356;28;20223;-85
2021/09/13 02:10:04;;;;;;;11.20;9.53;;;;;;;;;;4994135;28;20238;-85
2021/09/13 02:13:08;;;;;;;12.90;9.47;;;;;;;;;;4994379;28;20202;-86
2021/09/13 02:16:14;;;;;;;13.50;9.80;;;;;;;;;;5004896;28;20594;-85
2021/09/13 02:19:18;;;;;;;14.57;9.50;;;;;;;;;;4993718;28;20529;-86
2021/09/13 02:22:23;;;;;;;14.50;9.70;;;;;;;;;;4993390;28;20514;-85
2021/09/13 02:25:27;;;;;;;9.97;8.90;;;;;;;;;;4993654;28;20181;-85
2021/09/13 02:28:31;;;;;;;9.63;8.67;;;;;;;;;;4994011;28;20215;-85
2021/09/13 02:31:36;;;;;;;10.90;9.20;;;;;;;;;;4993365;28;20206;-85
2021/09/13 02:34:40;;;;;;;9.93;8.93;;;;;;;;;;4993079;28;20177;-85
2021/09/13 02:37:44;;;;;;;9.77;8.77;;;;;;;;;;4982652;28;20224;-85
2021/09/13 02:40:49;;;;;;;11.63;9.53;;;;;;;;;;4993294;28;20177;-85
2021/09/13 02:43:53;;;;;;;10.00;8.90;;;;;;;;;;4982256;28;20205;-86
2021/09/13 02:46:57;;;;;;;11.70;9.00;;;;;;;;;;5004143;28;20720;-85
2021/09/13 02:50:03;;;;;;;9.60;8.70;;;;;;;;;;4992997;28;20517;-85
2021/09/13 02:53:08;;;;;;;11.03;8.33;;;;;;;;;;4982450;28;20521;-85
2021/09/13 02:56:13;;;;;;;13.07;9.13;;;;;;;;;;4982222;28;20221;-85
2021/09/13 02:59:21;;;;;;;8.83;7.93;;;;;;;;;;4982576;28;20189;-85
2021/09/13 03:02:25;;;;;;;11.30;7.97;;;;;;;;;;4992747;28;20182;-85
2021/09/13 03:05:30;;;;;;;9.43;8.53;;;;;;;;;;4992515;28;20645;-85
2021/09/13 03:08:38;;;;;;;10.00;8.30;;;;;;;;;;5003712;28;20197;-85
2021/09/13 03:11:42;;;;;;;13.20;8.50;;;;;;;;;;5004193;28;20217;-85
2021/09/13 03:14:47;;;;;;;9.50;8.53;;;;;;;;;;4994279;28;20185;-85
2021/09/13 03:17:51;;;;;;;9.87;8.87;;;;;;;;;;4982180;28;20182;-85
2021/09/13 03:20:56;;;;;;;9.23;8.33;;;;;;;;;;4994055;28;20648;-85
2021/09/13 03:24:01;;;;;;;9.43;8.53;;;;;;;;;;4994075;28;20203;-85
2021/09/13 03:27:05;;;;;;;11.43;8.03;;;;;;;;;;4982791;28;20221;-85
2021/09/13 03:30:13;;;;;;;9.73;8.73;;;;;;;;;;4982946;28;20538;-85
2021/09/13 03:33:21;;;;;;;9.07;8.17;;;;;;;;;;4982844;28;20190;-85
2021/09/13 03:36:26;;;;;;;9.17;7.93;;;;;;;;;;4982510;28;20242;-85
2021/09/13 03:39:32;;;;;;;12.17;8.30;;;;;;;;;;4994690;28;20514;-85
2021/09/13 03:42:37;;;;;;;10.63;8.20;;;;;;;;;;4982324;28;20177;-85
2021/09/13 03:45:41;;;;;;;9.60;7.90;;;;;;;;;;4984056;28;20229;-86
2021/09/13 03:49:10;;;;;;;9.93;8.03;;;;;;;;;;5016733;28;20613;-82
2021/09/13 03:52:14;;;;;;;12.17;8.47;;;;;;;;;;4992592;28;20209;-83
2021/09/13 03:55:18;;;;;;;14.93;9.47;;;;;;;;;;4981296;28;20652;-83
2021/09/13 03:58:22;;;;;;;15.63;9.67;;;;;;;;;;4995464;28;20185;-83
2021/09/13 04:01:26;;;;;;;11.53;8.80;;;;;;;;;;4992646;28;20177;-82
2021/09/13 04:04:31;;;;;;;10.73;8.70;;;;;;;;;;4980805;28;20182;-85
2021/09/13 04:11:48;;;;;;;11.33;8.83;;;;;;;;;;5019948;28;20208;-83
2021/09/13 04:15:11;;;;;;;11.20;8.87;;;;;;;;;;5005964;28;20625;-85
2021/09/13 04:18:33;;;;;;;9.57;7.40;;;;;;;;;;4994170;28;20502;-85
2021/09/13 04:21:56;;;;;;;11.10;7.53;;;;;;;;;;4994870;28;20190;-86
2021/09/13 04:25:16;;;;;;;9.00;7.87;;;;;;;;;;4983314;28;20185;-85
2021/09/13 04:28:44;;;;;;;11.70;8.03;;;;;;;;;;4995274;28;20193;-88
2021/09/13 04:31:56;;;;;;;10.97;8.00;;;;;;;;;;4992979;28;20209;-85
2021/09/13 04:35:13;;;;;;;13.33;8.40;;;;;;;;;;4993539;28;20189;-85
2021/09/13 04:38:34;;;;;;;12.33;7.60;;;;;;;;;;5003753;28;20190;-85
2021/09/13 04:41:51;;;;;;;13.03;8.27;;;;;;;;;;4983040;28;20178;-85
2021/09/13 04:45:00;;;;;;;14.20;8.03;;;;;;;;;;4991816;28;20529;-86
2021/09/13 04:48:29;;;;;;;9.33;7.70;;;;;;;;;;4984888;28;20181;-84
2021/09/13 04:52:00;;;;;;;16.30;7.83;;;;;;;;;;4984399;28;20217;-84
2021/09/13 04:55:12;;;;;;;15.53;7.73;;;;;;;;;;4981774;28;20185;-86
2021/09/13 04:58:16;;;;;;;13.93;7.40;;;;;;;;;;4991724;28;20178;-87
2021/09/13 05:01:21;;;;;;;9.90;7.70;;;;;;;;;;4990264;28;20533;-86
2021/09/13 05:04:27;;;;;;;10.23;7.03;;;;;;;;;;4991542;28;20178;-87
2021/09/13 05:07:31;;;;;;;11.77;8.07;;;;;;;;;;5002104;28;20217;-87
2021/09/13 05:10:35;;;;;;;15.73;8.47;;;;;;;;;;5002024;28;20204;-86
2021/09/13 05:13:39;;;;;;;18.67;9.63;;;;;;;;;;5001601;28;20221;-87
2021/09/13 05:16:45;;;;;;;18.87;9.77;;;;;;;;;;4979732;28;20232;-86
2021/09/13 05:19:51;;;;;;;12.87;8.87;;;;;;;;;;4992433;28;20185;-86
2021/09/13 05:22:55;;;;;;;12.00;8.40;;;;;;;;;;4983287;28;20205;-87
2021/09/13 05:25:59;;;;;;;11.30;9.10;;;;;;;;;;4994768;28;20225;-86
2021/09/13 05:29:04;;;;;;;10.70;9.13;;;;;;;;;;5005899;28;20182;-86
2021/09/13 05:32:08;;;;;;;12.03;9.33;;;;;;;;;;5005510;28;20205;-86
2021/09/13 05:35:13;;;;;;;12.83;8.80;;;;;;;;;;5005395;28;20205;-86
2021/09/13 05:38:18;;;;;;;14.23;9.30;;;;;;;;;;4983323;28;20197;-86
2021/09/13 05:41:23;;;;;;;14.83;8.40;;;;;;;;;;5005259;28;20181;-86
2021/09/13 05:44:28;;;;;;;13.80;9.83;;;;;;;;;;4993748;28;20178;-86
2021/09/13 05:47:35;;;;;;;11.60;9.33;;;;;;;;;;4982905;28;20232;-85
2021/09/13 05:50:42;;;;;;;20.70;10.30;;;;;;;;;;5005067;28;20178;-85
2021/09/13 05:53:47;;;;;;;17.10;10.27;;;;;;;;;;4993595;28;20217;-85
2021/09/13 05:56:53;;;;;;;15.90;9.83;;;;;;;;;;4993991;28;20224;-86
2021/09/13 05:59:58;;;;;;;19.70;10.33;;;;;;;;;;4994141;28;20185;-85
2021/09/13 06:03:05;;;;;;;17.40;9.23;;;;;;;;;;4982898;28;20181;-86
2021/09/13 06:06:17;;;;;;;18.83;9.23;;;;;;;;;;4964122;28;20221;-86
2021/09/13 06:09:21;;;;;;;26.30;10.50;;;;;;;;;;4963376;28;20186;-85
2021/09/13 06:12:25;;;;;;;21.23;9.87;;;;;;;;;;4974642;28;20573;-86
2021/09/13 06:15:40;;;;;;;22.63;11.23;;;;;;;;;;4985412;28;20183;-85
2021/09/13 06:18:45;;;;;;;23.17;10.93;;;;;;;;;;4973941;28;20205;-86
2021/09/13 06:21:52;;;;;;;23.87;10.03;;;;;;;;;;4974202;28;20190;-86
2021/09/13 06:24:57;;;;;;;25.37;11.63;;;;;;;;;;4963198;28;20193;-86
2021/09/13 06:28:02;;;;;;;20.30;10.97;;;;;;;;;;4974050;28;20189;-85
2021/09/13 06:31:06;;;;;;;31.87;14.53;;;;;;;;;;4973663;28;20197;-85
2021/09/13 06:34:16;;;;;;;21.67;13.10;;;;;;;;;;4985299;28;20190;-85
2021/09/13 06:37:22;;;;;;;24.13;13.83;;;;;;;;;;4973788;28;20217;-85
2021/09/13 06:40:27;;;;;;;25.63;14.30;;;;;;;;;;4973986;28;20285;-85
2021/09/13 06:43:32;;;;;;;18.40;13.67;;;;;;;;;;4973586;28;20189;-86
2021/09/13 06:49:44;;;;;;;16.40;13.53;;;;;;;;;;5011859;28;20203;-84
2021/09/13 06:52:51;;;;;;;20.27;12.73;;;;;;;;;;5011868;28;20567;-85
2021/09/13 06:55:55;;;;;;;12.97;9.90;;;;;;;;;;5000310;28;20204;-84
2021/09/13 06:58:59;;;;;;;12.37;10.20;;;;;;;;;;5003455;28;20553;-85
2021/09/13 07:02:03;;;;;;;14.60;9.37;;;;;;;;;;5015575;28;20540;-85
2021/09/13 07:05:08;;;;;;;17.83;10.20;;;;;;;;;;4981017;28;20201;-84
2021/09/13 07:08:12;;;;;;;15.23;11.00;;;;;;;;;;4992363;28;20220;-85
2021/09/13 07:11:18;;;;;;;13.93;11.33;;;;;;;;;;4991914;28;20216;-85
2021/09/13 07:14:22;;;;;;;12.77;11.47;;;;;;;;;;4991974;28;20212;-85
2021/09/13 07:17:27;;;;;;;14.83;11.17;;;;;;;;;;5014971;28;20588;-84
2021/09/13 07:20:31;;;;;;;12.37;10.90;;;;;;;;;;5015317;28;20196;-85
2021/09/13 07:23:35;;;;;;;11.67;10.23;;;;;;;;;;4991817;28;20188;-85
2021/09/13 07:26:39;;;;;;;13.57;10.20;;;;;;;;;;4991471;28;20224;-85
2021/09/13 07:29:43;;;;;;;14.53;10.67;;;;;;;;;;4991733;28;20257;-85
2021/09/13 07:32:48;;;;;;;14.67;11.10;;;;;;;;;;4980450;28;20212;-85
2021/09/13 07:35:52;;;;;;;13.83;10.73;;;;;;;;;;4991781;28;20189;-85
2021/09/13 07:38:57;;;;;;;12.23;9.30;;;;;;;;;;4991655;28;20192;-85
2021/09/13 07:42:01;;;;;;;12.40;9.47;;;;;;;;;;4990589;28;20688;-85
2021/09/13 07:45:06;;;;;;;19.03;9.90;;;;;;;;;;4991932;28;20190;-85
2021/09/13 07:48:10;;;;;;;10.90;8.33;;;;;;;;;;4980401;28;20565;-85
2021/09/13 07:51:14;;;;;;;13.47;9.87;;;;;;;;;;4991629;28;20181;-85
2021/09/13 07:54:18;;;;;;;10.97;9.87;;;;;;;;;;5002407;28;20234;-85
2021/09/13 07:57:23;;;;;;;14.43;9.13;;;;;;;;;;4990938;28;20228;-85
2021/09/13 08:00:27;;;;;;;12.13;9.93;;;;;;;;;;4991201;28;20181;-84
2021/09/13 08:03:31;;;;;;;15.63;9.03;;;;;;;;;;4991571;28;20181;-85
2021/09/13 08:06:46;;;;;;;21.80;9.73;;;;;;;;;;4982550;28;20320;-84
2021/09/13 08:09:50;;;;;;;16.67;8.70;;;;;;;;;;4980070;28;20651;-85
2021/09/13 08:12:54;;;;;;;12.20;9.13;;;;;;;;;;4990837;28;20209;-85
2021/09/13 08:15:59;;;;;;;12.37;9.70;;;;;;;;;;4980107;28;20205;-85
2021/09/13 08:19:05;;;;;;;11.80;9.03;;;;;;;;;;4991357;28;20181;-85
2021/09/13 08:22:09;;;;;;;14.30;8.00;;;;;;;;;;4991264;28;20624;-85
2021/09/13 08:25:14;;;;;;;12.67;10.10;;;;;;;;;;4980634;28;20629;-85
2021/09/13 08:28:30;;;;;;;12.67;9.80;;;;;;;;;;4981913;28;20189;-85
2021/09/13 08:31:35;;;;;;;12.97;9.27;;;;;;;;;;5002466;28;20190;-85
2021/09/13 08:34:38;;;;;;;13.03;9.13;;;;;;;;;;4991116;28;20217;-85
2021/09/13 08:37:42;;;;;;;12.60;9.00;;;;;;;;;;4991175;28;20224;-85
2021/09/13 08:40:46;;;;;;;10.03;9.03;;;;;;;;;;4991466;28;20185;-85
2021/09/13 08:43:52;;;;;;;13.07;9.03;;;;;;;;;;4991103;28;20616;-85
2021/09/13 08:47:02;;;;;;;10.60;9.23;;;;;;;;;;4990998;28;20224;-85
2021/09/13 08:50:43;;;;;;;18.57;9.13;;;;;;;;;;4979718;28;20182;-85
2021/09/13 08:53:43;;;;;;;11.63;9.90;;;;;;;;;;5003186;28;20206;-85
2021/09/13 08:56:52;;;;;;;14.37;7.73;;;;;;;;;;4983969;28;20218;-85
2021/09/13 08:59:57;;;;;;;8.43;7.57;;;;;;;;;;5006074;28;20180;-85
2021/09/13 09:03:03;;;;;;;12.93;8.47;;;;;;;;;;5006021;28;20185;-86
2021/09/13 09:06:08;;;;;;;8.00;7.20;;;;;;;;;;4983982;28;20182;-86
2021/09/13 09:09:14;;;;;;;10.30;7.50;;;;;;;;;;4994672;28;20519;-86
2021/09/13 09:12:18;;;;;;;9.50;6.67;;;;;;;;;;4983574;28;20180;-85
2021/09/13 09:15:22;;;;;;;7.15;6.45;;;;;;;;;;4984036;28;20189;-84
2021/09/13 09:18:43;;;;;;;6.95;5.55;;;;;;;;;;4994610;28;20183;-85
2021/09/13 09:21:47;;;;;;;11.07;6.00;;;;;;;;;;4983382;28;20191;-85
2021/09/13 09:24:53;;;;;;;9.02;5.18;;;;;;;;;;5005593;28;20183;-86
2021/09/13 09:28:00;;;;;;;7.50;5.93;;;;;;;;;;5005357;28;20262;-84
2021/09/13 09:31:05;;;;;;;7.53;5.78;;;;;;;;;;4996280;28;20188;-84
2021/09/13 09:34:12;;;;;;;8.52;5.55;;;;;;;;;;4995559;28;20225;-83
2021/09/13 09:37:17;;;;;;;6.32;5.65;;;;;;;;;;4984464;28;20210;-83
2021/09/13 09:40:29;;;;;;;5.75;4.80;;;;;;;;;;4996487;28;20183;-84
2021/09/13 09:43:57;;;;;;;6.38;5.38;;;;;;;;;;5006358;28;20190;-84
2021/09/13 09:47:07;;;;;;;5.00;4.38;;;;;;;;;;4994421;28;20218;-84
2021/09/13 09:50:12;;;;;;;9.02;5.28;;;;;;;;;;5006848;28;20545;-84
2021/09/13 09:53:19;;;;;;;7.10;5.10;;;;;;;;;;4984682;28;20220;-84
2021/09/13 09:56:27;;;;;;;5.93;5.20;;;;;;;;;;4994942;28;20216;-84
2021/09/13 09:59:34;;;;;;;5.75;5.13;;;;;;;;;;4994988;28;20182;-84
2021/09/13 10:02:41;;;;;;;6.95;4.60;;;;;;;;;;4993975;28;20191;-84
2021/09/13 10:05:46;;;;;;;7.28;4.63;;;;;;;;;;4982382;28;20181;-84
2021/09/13 10:08:50;;;;;;;5.85;4.30;;;;;;;;;;4994665;28;20184;-84
2021/09/13 10:11:57;;;;;;;10.75;4.40;;;;;;;;;;4982068;28;20204;-84
2021/09/13 10:15:03;;;;;;;9.45;4.25;;;;;;;;;;4985810;28;20564;-84
2021/09/13 10:18:07;;;;;;;5.00;3.60;;;;;;;;;;4985218;28;20227;-84
2021/09/13 10:21:12;;;;;;;4.07;3.10;;;;;;;;;;4973988;28;20633;-83
2021/09/13 10:24:19;;;;;;;4.15;2.97;;;;;;;;;;4974158;28;20177;-84
2021/09/13 10:27:23;;;;;;;2.95;2.65;;;;;;;;;;4974125;28;20225;-84
2021/09/13 10:30:27;;;;;;;4.13;2.97;;;;;;;;;;4974135;28;20185;-84
2021/09/13 10:33:32;;;;;;;4.03;3.13;;;;;;;;;;4984967;28;20663;-84
2021/09/13 10:36:58;;;;;;;3.40;3.10;;;;;;;;;;4985119;28;20694;-83
2021/09/13 10:40:06;;;;;;;10.23;4.13;;;;;;;;;;4974452;28;20184;-84
2021/09/13 10:43:19;;;;;;;4.47;3.60;;;;;;;;;;4973963;28;20522;-84
2021/09/13 10:46:59;;;;;;;6.68;3.28;;;;;;;;;;4973718;28;20226;-84
2021/09/13 10:50:16;;;;;;;4.03;3.22;;;;;;;;;;4974035;28;20177;-83
2021/09/13 10:53:21;;;;;;;3.25;2.95;;;;;;;;;;4984851;28;20195;-84
2021/09/13 10:56:25;;;;;;;3.97;3.15;;;;;;;;;;4973680;28;20228;-84
2021/09/13 10:59:42;;;;;;;3.28;2.97;;;;;;;;;;4973652;28;20186;-84
2021/09/13 11:03:22;;;;;;;3.47;3.15;;;;;;;;;;4973269;28;20194;-84
2021/09/13 11:06:30;;;;;;;11.20;4.10;;;;;;;;;;4973149;28;20214;-84
2021/09/13 11:09:36;;;;;;;3.53;3.03;;;;;;;;;;4985023;28;20182;-84
2021/09/13 11:12:40;;;;;;;4.22;3.22;;;;;;;;;;4973652;28;20536;-84
2021/09/13 11:15:49;;;;;;;27.38;4.13;;;;;;;;;;4984591;28;20526;-83
2021/09/13 11:18:54;;;;;;;4.05;3.35;;;;;;;;;;4972988;28;20526;-84
2021/09/13 11:22:04;;;;;;;6.43;3.65;;;;;;;;;;4973330;28;20184;-84
2021/09/13 11:25:10;;;;;;;7.97;4.00;;;;;;;;;;4984000;28;20635;-84
2021/09/13 11:28:14;;;;;;;11.25;3.70;;;;;;;;;;4973023;28;20232;-83
2021/09/13 11:31:28;;;;;;;4.63;3.33;;;;;;;;;;4972417;28;20664;-83
2021/09/13 11:34:38;;;;;;;4.38;2.78;;;;;;;;;;4961914;28;20209;-84
2021/09/13 11:37:44;;;;;;;4.75;3.13;;;;;;;;;;4983392;28;20221;-83
2021/09/13 11:40:48;;;;;;;5.53;3.25;;;;;;;;;;4972513;28;20189;-84
2021/09/13 11:44:05;;;;;;;6.93;2.90;;;;;;;;;;4984046;28;20179;-84
2021/09/13 11:47:11;;;;;;;5.55;2.97;;;;;;;;;;4982978;28;20561;-83
2021/09/13 11:50:17;;;;;;;12.55;3.00;;;;;;;;;;4972590;28;20630;-83
2021/09/13 11:53:22;;;;;;;3.15;2.85;;;;;;;;;;4972782;28;20187;-83
2021/09/13 11:56:28;;;;;;;2.90;2.53;;;;;;;;;;4972285;28;20217;-83
2021/09/13 11:59:33;;;;;;;3.53;2.50;;;;;;;;;;4972850;28;20173;-83
2021/09/13 12:02:42;;;;;;;3.58;2.40;;;;;;;;;;4984015;28;20181;-83
2021/09/13 12:05:46;;;;;;;4.93;2.78;;;;;;;;;;4995366;28;20634;-83
2021/09/13 12:08:50;;;;;;;4.43;2.60;;;;;;;;;;4983867;28;20181;-84
2021/09/13 12:11:54;;;;;;;13.88;3.00;;;;;;;;;;4972074;28;20192;-84
2021/09/13 12:15:05;;;;;;;4.55;2.75;;;;;;;;;;4971770;28;20214;-84
2021/09/13 12:18:09;;;;;;;8.73;3.88;;;;;;;;;;4995391;28;20554;-83
2021/09/13 12:21:17;;;;;;;5.20;2.53;;;;;;;;;;4972326;28;20191;-84
2021/09/13 12:24:22;;;;;;;2.90;2.50;;;;;;;;;;4971852;28;20179;-84
2021/09/13 12:27:26;;;;;;;3.17;2.42;;;;;;;;;;4995118;28;20553;-84
2021/09/13 12:30:36;;;;;;;9.60;2.95;;;;;;;;;;4965598;28;20517;-84
2021/09/13 12:33:49;;;;;;;7.78;2.85;;;;;;;;;;4975787;28;20182;-84
2021/09/13 12:37:05;;;;;;;10.32;3.70;;;;;;;;;;4975820;28;20693;-83
2021/09/13 12:40:14;;;;;;;7.20;3.28;;;;;;;;;;4976252;28;20686;-84
2021/09/13 12:43:21;;;;;;;3.25;2.50;;;;;;;;;;4977007;28;20183;-84
2021/09/13 12:46:25;;;;;;;5.50;2.90;;;;;;;;;;5001852;22;20226;-86
2021/09/13 12:49:31;;;;;;;18.52;3.70;;;;;;;;;;4994694;28;20217;-86
2021/09/13 12:52:46;;;;;;;3.67;2.65;;;;;;;;;;4996584;28;20185;-87
2021/09/13 12:55:50;;;;;;;6.88;2.70;;;;;;;;;;4975814;28;20222;-87
2021/09/13 12:59:15;;;;;;;4.25;2.85;;;;;;;;;;4957592;28;20638;-85
2021/09/13 13:02:23;;;;;;;2.75;2.55;;;;;;;;;;4969094;28;20188;-85
2021/09/13 13:05:34;;;;;;;5.00;2.70;;;;;;;;;;4982614;28;20554;-86
2021/09/13 13:08:38;;;;;;;3.95;2.65;;;;;;;;;;4985909;28;20558;-85
2021/09/13 13:11:42;;;;;;;7.80;2.90;;;;;;;;;;4975098;28;20514;-85
2021/09/13 13:14:46;;;;;;;3.05;2.55;;;;;;;;;;4974901;28;20214;-87
2021/09/13 13:17:51;;;;;;;5.43;2.50;;;;;;;;;;4985878;28;20685;-85
2021/09/13 13:20:55;;;;;;;3.95;2.72;;;;;;;;;;4974862;28;20202;-87
2021/09/13 13:23:59;;;;;;;2.78;2.42;;;;;;;;;;4974727;28;20206;-85
2021/09/13 13:27:05;;;;;;;4.53;2.80;;;;;;;;;;4974626;28;20705;-87
2021/09/13 13:30:10;;;;;;;4.30;2.70;;;;;;;;;;4974862;28;20182;-87
2021/09/13 13:33:14;;;;;;;6.95;3.30;;;;;;;;;;4974830;28;20180;-87
2021/09/13 13:36:19;;;;;;;4.88;2.53;;;;;;;;;;4974338;28;20189;-86
2021/09/13 13:39:23;;;;;;;18.75;3.20;;;;;;;;;;4974544;28;20183;-86
2021/09/13 13:42:27;;;;;;;6.43;2.80;;;;;;;;;;4974555;28;20193;-86
2021/09/13 13:45:31;;;;;;;4.03;2.65;;;;;;;;;;4985823;28;20177;-86
2021/09/13 13:48:35;;;;;;;3.50;2.75;;;;;;;;;;4981027;28;20232;-86
2021/09/13 13:51:39;;;;;;;3.20;2.90;;;;;;;;;;4966470;28;20181;-87
2021/09/13 13:54:43;;;;;;;4.35;2.30;;;;;;;;;;4966353;28;20213;-87
2021/09/13 13:57:48;;;;;;;3.03;2.67;;;;;;;;;;4954969;28;20224;-87
2021/09/13 14:00:53;;;;;;;5.70;2.95;;;;;;;;;;4977326;28;20558;-86
2021/09/13 14:03:57;;;;;;;10.30;3.20;;;;;;;;;;4973686;28;20185;-86
2021/09/13 14:07:02;;;;;;;8.43;3.03;;;;;;;;;;4974050;28;20220;-86
2021/09/13 14:10:08;;;;;;;7.13;3.33;;;;;;;;;;4962895;28;20189;-86
2021/09/13 14:13:12;;;;;;;6.38;3.83;;;;;;;;;;4973919;28;20212;-86
2021/09/13 14:16:16;;;;;;;5.55;3.45;;;;;;;;;;4975583;28;20661;-85
2021/09/13 14:19:21;;;;;;;3.90;3.50;;;;;;;;;;4976875;28;20188;-86
2021/09/13 14:22:25;;;;;;;6.22;3.70;;;;;;;;;;4966360;28;20188;-86
2021/09/13 14:25:33;;;;;;;4.93;3.38;;;;;;;;;;4965345;28;20621;-86
2021/09/13 14:28:38;;;;;;;10.57;3.80;;;;;;;;;;4975977;28;20220;-86
2021/09/13 14:31:42;;;;;;;4.15;3.10;;;;;;;;;;4976992;28;20181;-86
2021/09/13 14:34:46;;;;;;;10.98;3.28;;;;;;;;;;4987124;28;20211;-86
2021/09/13 14:37:51;;;;;;;7.75;3.97;;;;;;;;;;4976066;28;20215;-86
2021/09/13 14:40:55;;;;;;;6.60;3.90;;;;;;;;;;4976891;28;20189;-86
2021/09/13 14:43:59;;;;;;;4.40;2.92;;;;;;;;;;4987438;28;20187;-87
2021/09/13 14:47:04;;;;;;;22.15;7.82;;;;;;;;;;4986660;28;20220;-87
2021/09/13 14:50:08;;;;;;;5.82;3.90;;;;;;;;;;4985445;28;20179;-86
2021/09/13 14:53:13;;;;;;;4.43;3.15;;;;;;;;;;4973872;28;20636;-86
2021/09/13 14:56:17;;;;;;;8.60;3.25;;;;;;;;;;4975796;28;20228;-86
2021/09/13 14:59:21;;;;;;;15.07;3.65;;;;;;;;;;4979770;28;20203;-86
2021/09/13 15:02:25;;;;;;;4.85;2.90;;;;;;;;;;4965995;28;20182;-87
2021/09/13 15:05:29;;;;;;;3.55;3.20;;;;;;;;;;4999498;28;20181;-86
2021/09/13 15:08:34;;;;;;;7.60;2.97;;;;;;;;;;4975853;28;20220;-86
2021/09/13 15:11:38;;;;;;;15.38;3.33;;;;;;;;;;4985941;28;20200;-86
2021/09/13 15:14:43;;;;;;;4.40;2.80;;;;;;;;;;4974244;28;20232;-86
2021/09/13 15:17:47;;;;;;;9.00;2.95;;;;;;;;;;4975564;28;20561;-86
2021/09/13 15:20:52;;;;;;;15.70;3.50;;;;;;;;;;4974728;28;20186;-86
2021/09/13 15:23:56;;;;;;;10.63;3.42;;;;;;;;;;4973512;28;20184;-86
2021/09/13 15:27:01;;;;;;;5.30;3.05;;;;;;;;;;4985043;28;20220;-86
2021/09/13 15:30:06;;;;;;;4.93;2.92;;;;;;;;;;4985752;28;20511;-86
2021/09/13 15:33:11;;;;;;;6.45;2.85;;;;;;;;;;4974479;28;20193;-86
2021/09/13 15:36:15;;;;;;;7.15;2.63;;;;;;;;;;4974180;28;20215;-86
2021/09/13 15:39:19;;;;;;;3.47;2.92;;;;;;;;;;4985437;28;20182;-86
2021/09/13 15:42:23;;;;;;;4.95;2.90;;;;;;;;;;4985964;28;20187;-86
2021/09/13 15:45:26;;;;;;;39.75;5.53;;;;;;;;;;4975634;28;20523;-86
2021/09/13 15:48:31;;;;;;;8.85;3.70;;;;;;;;;;4987175;28;20265;-86
2021/09/13 15:51:35;;;;;;;18.13;4.47;;;;;;;;;;4965706;28;20672;-86
2021/09/13 15:54:39;;;;;;;9.70;3.80;;;;;;;;;;4976568;28;20661;-86
2021/09/13 15:57:43;;;;;;;15.37;4.20;;;;;;;;;;4986519;28;20693;-86
2021/09/13 16:00:48;;;;;;;13.20;4.23;;;;;;;;;;4987650;28;20191;-86
2021/09/13 16:03:52;;;;;;;7.53;3.53;;;;;;;;;;4975647;28;20189;-86
2021/09/13 16:06:56;;;;;;;18.90;4.53;;;;;;;;;;4987493;28;20693;-86
2021/09/13 16:10:03;;;;;;;8.33;3.40;;;;;;;;;;4984287;28;20190;-86
2021/09/13 16:13:08;;;;;;;19.70;4.90;;;;;;;;;;4973033;28;20184;-86
2021/09/13 16:16:12;;;;;;;9.63;3.40;;;;;;;;;;4971896;28;20208;-85
2021/09/13 16:19:15;;;;;;;8.57;3.90;;;;;;;;;;4982771;28;20188;-86
2021/09/13 16:22:20;;;;;;;12.77;3.47;;;;;;;;;;4961988;28;20518;-87
2021/09/13 16:25:24;;;;;;;115.60;10.13;;;;;;;;;;4976765;28;20186;-87
2021/09/13 16:28:28;;;;;;;31.73;5.40;;;;;;;;;;4976065;28;20226;-86
2021/09/13 16:31:32;;;;;;;7.23;3.03;;;;;;;;;;4964214;28;20506;-86
2021/09/13 16:34:38;;;;;;;6.90;3.17;;;;;;;;;;4987043;28;20182;-86
2021/09/13 16:37:42;;;;;;;8.30;3.70;;;;;;;;;;4975403;28;20701;-86
2021/09/13 16:40:46;;;;;;;15.93;4.80;;;;;;;;;;4976277;28;20183;-86
2021/09/13 16:43:51;;;;;;;14.07;4.30;;;;;;;;;;4986957;28;20190;-86
2021/09/13 16:46:55;;;;;;;8.63;4.53;;;;;;;;;;4972387;28;20704;-86
2021/09/13 16:49:59;;;;;;;15.93;4.93;;;;;;;;;;4983411;28;20186;-85
2021/09/13 16:53:03;;;;;;;16.00;5.17;;;;;;;;;;4985186;28;20182;-86
2021/09/13 16:56:07;;;;;;;6.90;3.93;;;;;;;;;;4975684;28;20719;-86
2021/09/13 16:59:11;;;;;;;8.23;3.97;;;;;;;;;;4975950;28;20205;-86
2021/09/13 17:02:15;;;;;;;14.20;3.90;;;;;;;;;;4975917;28;20205;-86
2021/09/13 17:05:19;;;;;;;8.20;3.90;;;;;;;;;;4975958;28;20502;-86
2021/09/13 17:08:23;;;;;;;5.90;3.80;;;;;;;;;;4975936;28;20218;-87
2021/09/13 17:11:28;;;;;;;8.10;3.70;;;;;;;;;;4975786;28;20178;-86
2021/09/13 17:14:32;;;;;;;13.00;4.83;;;;;;;;;;4977109;28;20186;-86
2021/09/13 17:17:36;;;;;;;8.63;4.70;;;;;;;;;;4967925;28;20217;-86
2021/09/13 17:20:40;;;;;;;5.10;4.10;;;;;;;;;;4979202;28;20182;-86
2021/09/13 17:23:45;;;;;;;6.80;4.30;;;;;;;;;;4990166;28;20178;-86
2021/09/13 17:26:50;;;;;;;13.70;4.70;;;;;;;;;;4968248;28;20218;-87
2021/09/13 17:29:54;;;;;;;5.93;4.47;;;;;;;;;;4978100;28;20510;-86
2021/09/13 17:32:58;;;;;;;5.00;4.13;;;;;;;;;;4978066;28;20178;-86
2021/09/13 17:36:03;;;;;;;8.97;4.40;;;;;;;;;;4990310;28;20210;-86
2021/09/13 17:39:07;;;;;;;6.87;4.23;;;;;;;;;;4978009;28;20205;-85
2021/09/13 17:42:11;;;;;;;6.10;4.60;;;;;;;;;;4978622;28;20182;-86
2021/09/13 17:45:15;;;;;;;7.20;4.70;;;;;;;;;;4978183;28;20182;-86
2021/09/13 17:48:21;;;;;;;5.13;4.13;;;;;;;;;;4966991;28;20222;-86
2021/09/13 17:51:25;;;;;;;5.13;4.63;;;;;;;;;;4978600;28;20178;-86
2021/09/13 17:54:34;;;;;;;5.00;4.53;;;;;;;;;;4989872;28;20179;-86
2021/09/13 17:57:39;;;;;;;6.20;4.23;;;;;;;;;;4977419;28;20214;-86
2021/09/13 18:00:44;;;;;;;6.43;4.40;;;;;;;;;;4988853;28;20186;-86
2021/09/13 18:03:48;;;;;;;7.40;4.43;;;;;;;;;;4989847;28;20178;-86
2021/09/13 18:06:52;;;;;;;4.70;4.30;;;;;;;;;;4977883;28;20213;-86
2021/09/13 18:09:56;;;;;;;6.63;5.20;;;;;;;;;;4975362;28;20622;-85
2021/09/13 18:13:02;;;;;;;6.13;4.80;;;;;;;;;;4975007;28;20186;-85
2021/09/13 18:16:06;;;;;;;6.80;5.27;;;;;;;;;;4974107;28;20210;-85
2021/09/13 18:19:10;;;;;;;6.10;5.27;;;;;;;;;;4985292;28;20190;-85
2021/09/13 18:22:14;;;;;;;9.67;5.40;;;;;;;;;;4985177;28;20198;-86
2021/09/13 18:25:18;;;;;;;7.90;5.93;;;;;;;;;;4974646;28;20198;-85
2021/09/13 18:28:22;;;;;;;6.83;5.70;;;;;;;;;;4985880;28;20222;-85
2021/09/13 18:31:26;;;;;;;5.77;4.83;;;;;;;;;;4985512;28;20190;-85
2021/09/13 18:34:30;;;;;;;9.83;5.50;;;;;;;;;;4963188;28;20186;-85